sensor_id;sensor_type;location;lat;lon;timestamp;temperature;humidity
11043;DHT22;5574;48.786;10.120;2023-06-10T00:01:52;18.00;94.20
11043;DHT22;5574;48.786;10.120;2023-06-10T00:04:20;17.90;94.40
11043;DHT22;5574;48.786;10.120;2023-06-10T00:06:47;17.90;93.90
11043;DHT22;5574;48.786;10.120;2023-06-10T00:09:16;17.90;94.40
11043;DHT22;5574;48.786;10.120;2023-06-10T00:11:43;17.90;94.30
11043;DHT22;5574;48.786;10.120;2023-06-10T00:14:10;17.90;93.90
11043;DHT22;5574;48.786;10.120;2023-06-10T00:16:37;17.90;93.80
11043;DHT22;5574;48.786;10.120;2023-06-10T00:19:04;17.90;94.00
11043;DHT22;5574;48.786;10.120;2023-06-10T00:21:32;17.80;94.20
11043;DHT22;5574;48.786;10.120;2023-06-10T00:24:03;17.70;94.50
11043;DHT22;5574;48.786;10.120;2023-06-10T00:26:32;17.70;94.40
11043;DHT22;5574;48.786;10.120;2023-06-10T00:28:58;17.70;94.40
11043;DHT22;5574;48.786;10.120;2023-06-10T00:31:25;17.70;94.60
11043;DHT22;5574;48.786;10.120;2023-06-10T00:33:52;17.70;94.20
11043;DHT22;5574;48.786;10.120;2023-06-10T00:36:19;17.60;94.40
11043;DHT22;5574;48.786;10.120;2023-06-10T00:38:46;17.60;94.40
11043;DHT22;5574;48.786;10.120;2023-06-10T00:41:12;17.50;94.50
11043;DHT22;5574;48.786;10.120;2023-06-10T00:43:40;17.50;94.70
11043;DHT22;5574;48.786;10.120;2023-06-10T00:46:07;17.40;94.90
11043;DHT22;5574;48.786;10.120;2023-06-10T00:48:34;17.40;94.80
11043;DHT22;5574;48.786;10.120;2023-06-10T00:51:01;17.40;94.70
11043;DHT22;5574;48.786;10.120;2023-06-10T00:53:28;17.30;95.00
11043;DHT22;5574;48.786;10.120;2023-06-10T00:55:55;17.30;95.00
11043;DHT22;5574;48.786;10.120;2023-06-10T00:58:23;17.30;94.60
11043;DHT22;5574;48.786;10.120;2023-06-10T01:00:52;17.30;94.70
11043;DHT22;5574;48.786;10.120;2023-06-10T01:03:19;17.30;95.00
11043;DHT22;5574;48.786;10.120;2023-06-10T01:05:49;17.40;94.60
11043;DHT22;5574;48.786;10.120;2023-06-10T01:08:24;17.40;94.50
11043;DHT22;5574;48.786;10.120;2023-06-10T01:10:59;17.30;95.00
11043;DHT22;5574;48.786;10.120;2023-06-10T01:13:27;17.20;94.60
11043;DHT22;5574;48.786;10.120;2023-06-10T01:15:57;17.20;95.00
11043;DHT22;5574;48.786;10.120;2023-06-10T01:18:29;17.10;95.30
11043;DHT22;5574;48.786;10.120;2023-06-10T01:20:56;17.10;95.30
11043;DHT22;5574;48.786;10.120;2023-06-10T01:23:24;17.10;95.10
11043;DHT22;5574;48.786;10.120;2023-06-10T01:25:57;17.10;95.30
11043;DHT22;5574;48.786;10.120;2023-06-10T01:28:31;17.10;95.30
11043;DHT22;5574;48.786;10.120;2023-06-10T01:31:05;17.00;94.80
11043;DHT22;5574;48.786;10.120;2023-06-10T01:33:37;17.00;95.40
11043;DHT22;5574;48.786;10.120;2023-06-10T01:36:05;16.90;95.20
11043;DHT22;5574;48.786;10.120;2023-06-10T01:38:39;16.90;95.40
11043;DHT22;5574;48.786;10.120;2023-06-10T01:41:07;16.80;95.10
11043;DHT22;5574;48.786;10.120;2023-06-10T01:43:33;16.90;95.50
11043;DHT22;5574;48.786;10.120;2023-06-10T01:46:00;16.80;95.00
11043;DHT22;5574;48.786;10.120;2023-06-10T01:48:27;16.80;95.40
11043;DHT22;5574;48.786;10.120;2023-06-10T01:50:54;16.70;95.60
11043;DHT22;5574;48.786;10.120;2023-06-10T01:53:21;16.70;95.30
11043;DHT22;5574;48.786;10.120;2023-06-10T01:55:49;16.60;95.60
11043;DHT22;5574;48.786;10.120;2023-06-10T01:58:16;16.70;95.60
11043;DHT22;5574;48.786;10.120;2023-06-10T02:00:42;16.60;95.60
11043;DHT22;5574;48.786;10.120;2023-06-10T02:03:09;16.70;95.40
11043;DHT22;5574;48.786;10.120;2023-06-10T02:05:36;16.70;95.10
11043;DHT22;5574;48.786;10.120;2023-06-10T02:08:03;16.60;95.30
11043;DHT22;5574;48.786;10.120;2023-06-10T02:10:29;16.60;95.40
11043;DHT22;5574;48.786;10.120;2023-06-10T02:12:58;16.60;95.50
11043;DHT22;5574;48.786;10.120;2023-06-10T02:15:25;16.60;95.50
11043;DHT22;5574;48.786;10.120;2023-06-10T02:17:52;16.50;95.60
11043;DHT22;5574;48.786;10.120;2023-06-10T02:20:20;16.60;95.90
11043;DHT22;5574;48.786;10.120;2023-06-10T02:22:46;16.50;95.60
11043;DHT22;5574;48.786;10.120;2023-06-10T02:25:13;16.50;95.50
11043;DHT22;5574;48.786;10.120;2023-06-10T02:27:40;16.50;95.90
11043;DHT22;5574;48.786;10.120;2023-06-10T02:30:09;16.40;95.60
11043;DHT22;5574;48.786;10.120;2023-06-10T02:32:36;16.40;95.90
11043;DHT22;5574;48.786;10.120;2023-06-10T02:35:03;16.40;95.90
11043;DHT22;5574;48.786;10.120;2023-06-10T02:37:29;16.40;95.80
11043;DHT22;5574;48.786;10.120;2023-06-10T02:39:56;16.50;96.10
11043;DHT22;5574;48.786;10.120;2023-06-10T02:42:23;16.50;96.00
11043;DHT22;5574;48.786;10.120;2023-06-10T02:44:49;16.50;96.10
11043;DHT22;5574;48.786;10.120;2023-06-10T02:47:17;16.50;96.00
11043;DHT22;5574;48.786;10.120;2023-06-10T02:49:44;16.50;95.60
11043;DHT22;5574;48.786;10.120;2023-06-10T02:52:11;16.40;95.90
11043;DHT22;5574;48.786;10.120;2023-06-10T02:54:37;16.30;95.60
11043;DHT22;5574;48.786;10.120;2023-06-10T02:57:05;16.30;95.70
11043;DHT22;5574;48.786;10.120;2023-06-10T02:59:33;16.30;95.90
11043;DHT22;5574;48.786;10.120;2023-06-10T03:02:00;16.30;96.00
11043;DHT22;5574;48.786;10.120;2023-06-10T03:04:29;16.30;96.00
11043;DHT22;5574;48.786;10.120;2023-06-10T03:06:56;16.40;96.00
11043;DHT22;5574;48.786;10.120;2023-06-10T03:09:22;16.40;95.50
11043;DHT22;5574;48.786;10.120;2023-06-10T03:11:49;16.40;95.50
11043;DHT22;5574;48.786;10.120;2023-06-10T03:14:16;16.40;95.50
11043;DHT22;5574;48.786;10.120;2023-06-10T03:16:42;16.30;95.40
11043;DHT22;5574;48.786;10.120;2023-06-10T03:19:10;16.30;95.60
11043;DHT22;5574;48.786;10.120;2023-06-10T03:21:38;16.30;95.40
11043;DHT22;5574;48.786;10.120;2023-06-10T03:24:07;16.30;96.30
11043;DHT22;5574;48.786;10.120;2023-06-10T03:26:33;16.20;95.80
11043;DHT22;5574;48.786;10.120;2023-06-10T03:29:00;16.20;95.90
11043;DHT22;5574;48.786;10.120;2023-06-10T03:31:27;16.10;95.90
11043;DHT22;5574;48.786;10.120;2023-06-10T03:33:53;16.20;96.40
11043;DHT22;5574;48.786;10.120;2023-06-10T03:36:20;16.10;96.60
11043;DHT22;5574;48.786;10.120;2023-06-10T03:38:48;16.20;96.20
11043;DHT22;5574;48.786;10.120;2023-06-10T03:41:17;16.20;96.30
11043;DHT22;5574;48.786;10.120;2023-06-10T03:43:43;16.20;95.90
11043;DHT22;5574;48.786;10.120;2023-06-10T03:46:10;16.20;96.10
11043;DHT22;5574;48.786;10.120;2023-06-10T03:48:37;16.30;96.10
11043;DHT22;5574;48.786;10.120;2023-06-10T03:51:04;16.30;96.00
11043;DHT22;5574;48.786;10.120;2023-06-10T03:53:30;16.30;95.70
11043;DHT22;5574;48.786;10.120;2023-06-10T03:55:59;16.20;95.30
11043;DHT22;5574;48.786;10.120;2023-06-10T03:58:26;16.20;95.50
11043;DHT22;5574;48.786;10.120;2023-06-10T04:00:52;16.20;95.40
11043;DHT22;5574;48.786;10.120;2023-06-10T04:03:20;16.10;95.60
11043;DHT22;5574;48.786;10.120;2023-06-10T04:05:48;16.10;95.70
11043;DHT22;5574;48.786;10.120;2023-06-10T04:08:15;16.10;95.80
11043;DHT22;5574;48.786;10.120;2023-06-10T04:10:42;16.10;95.70
11043;DHT22;5574;48.786;10.120;2023-06-10T04:13:10;16.10;95.60
11043;DHT22;5574;48.786;10.120;2023-06-10T04:15:36;16.10;95.60
11043;DHT22;5574;48.786;10.120;2023-06-10T04:18:04;16.10;95.90
11043;DHT22;5574;48.786;10.120;2023-06-10T04:20:31;16.10;96.20
11043;DHT22;5574;48.786;10.120;2023-06-10T04:22:58;16.20;96.40
11043;DHT22;5574;48.786;10.120;2023-06-10T04:25:25;16.20;96.40
11043;DHT22;5574;48.786;10.120;2023-06-10T04:27:51;16.30;96.40
11043;DHT22;5574;48.786;10.120;2023-06-10T04:30:19;16.30;96.80
11043;DHT22;5574;48.786;10.120;2023-06-10T04:32:47;16.30;96.40
11043;DHT22;5574;48.786;10.120;2023-06-10T04:35:15;16.40;96.20
11043;DHT22;5574;48.786;10.120;2023-06-10T04:37:42;16.40;96.00
11043;DHT22;5574;48.786;10.120;2023-06-10T04:40:09;16.40;96.30
11043;DHT22;5574;48.786;10.120;2023-06-10T04:42:36;16.40;96.40
11043;DHT22;5574;48.786;10.120;2023-06-10T04:45:04;16.40;96.60
11043;DHT22;5574;48.786;10.120;2023-06-10T04:47:32;16.50;96.70
11043;DHT22;5574;48.786;10.120;2023-06-10T04:49:59;16.50;96.80
11043;DHT22;5574;48.786;10.120;2023-06-10T04:52:26;16.50;96.80
11043;DHT22;5574;48.786;10.120;2023-06-10T04:54:53;16.60;96.90
11043;DHT22;5574;48.786;10.120;2023-06-10T04:57:20;16.60;96.80
11043;DHT22;5574;48.786;10.120;2023-06-10T04:59:47;16.70;96.90
11043;DHT22;5574;48.786;10.120;2023-06-10T05:02:13;16.80;96.80
11043;DHT22;5574;48.786;10.120;2023-06-10T05:04:41;16.80;96.80
11043;DHT22;5574;48.786;10.120;2023-06-10T05:07:08;16.80;96.80
11043;DHT22;5574;48.786;10.120;2023-06-10T05:09:35;16.90;96.90
11043;DHT22;5574;48.786;10.120;2023-06-10T05:12:03;17.00;97.00
11043;DHT22;5574;48.786;10.120;2023-06-10T05:14:29;17.10;97.20
11043;DHT22;5574;48.786;10.120;2023-06-10T05:16:56;17.20;97.30
11043;DHT22;5574;48.786;10.120;2023-06-10T05:19:23;17.30;97.30
11043;DHT22;5574;48.786;10.120;2023-06-10T05:21:52;17.40;97.10
11043;DHT22;5574;48.786;10.120;2023-06-10T05:24:18;17.60;97.10
11043;DHT22;5574;48.786;10.120;2023-06-10T05:26:45;17.70;97.60
11043;DHT22;5574;48.786;10.120;2023-06-10T05:29:14;17.80;97.50
11043;DHT22;5574;48.786;10.120;2023-06-10T05:31:41;18.00;96.80
11043;DHT22;5574;48.786;10.120;2023-06-10T05:34:08;18.10;97.60
11043;DHT22;5574;48.786;10.120;2023-06-10T05:36:34;18.20;97.80
11043;DHT22;5574;48.786;10.120;2023-06-10T05:39:03;18.40;98.20
11043;DHT22;5574;48.786;10.120;2023-06-10T05:41:29;18.50;98.40
11043;DHT22;5574;48.786;10.120;2023-06-10T05:43:56;18.60;97.60
11043;DHT22;5574;48.786;10.120;2023-06-10T05:46:23;18.70;98.10
11043;DHT22;5574;48.786;10.120;2023-06-10T05:48:50;18.80;97.20
11043;DHT22;5574;48.786;10.120;2023-06-10T05:51:17;18.90;97.30
11043;DHT22;5574;48.786;10.120;2023-06-10T05:53:43;19.00;97.40
11043;DHT22;5574;48.786;10.120;2023-06-10T05:56:13;19.10;97.60
11043;DHT22;5574;48.786;10.120;2023-06-10T05:58:39;19.10;98.00
11043;DHT22;5574;48.786;10.120;2023-06-10T06:01:06;19.20;97.20
11043;DHT22;5574;48.786;10.120;2023-06-10T06:03:33;19.30;96.40
11043;DHT22;5574;48.786;10.120;2023-06-10T06:05:59;19.30;96.80
11043;DHT22;5574;48.786;10.120;2023-06-10T06:08:26;19.40;96.90
11043;DHT22;5574;48.786;10.120;2023-06-10T06:10:53;19.50;97.00
11043;DHT22;5574;48.786;10.120;2023-06-10T06:13:21;19.50;96.40
11043;DHT22;5574;48.786;10.120;2023-06-10T06:15:48;19.60;96.10
11043;DHT22;5574;48.786;10.120;2023-06-10T06:18:14;19.60;96.00
11043;DHT22;5574;48.786;10.120;2023-06-10T06:20:41;19.70;96.40
11043;DHT22;5574;48.786;10.120;2023-06-10T06:23:08;19.70;96.30
11043;DHT22;5574;48.786;10.120;2023-06-10T06:25:35;19.80;95.80
11043;DHT22;5574;48.786;10.120;2023-06-10T06:28:04;19.90;95.50
11043;DHT22;5574;48.786;10.120;2023-06-10T06:30:32;19.90;95.90
11043;DHT22;5574;48.786;10.120;2023-06-10T06:32:59;20.00;95.40
11043;DHT22;5574;48.786;10.120;2023-06-10T06:35:25;20.00;95.30
11043;DHT22;5574;48.786;10.120;2023-06-10T06:37:52;20.10;95.60
11043;DHT22;5574;48.786;10.120;2023-06-10T06:40:18;20.20;95.20
11043;DHT22;5574;48.786;10.120;2023-06-10T06:42:45;20.30;95.00
11043;DHT22;5574;48.786;10.120;2023-06-10T06:45:12;20.40;95.00
11043;DHT22;5574;48.786;10.120;2023-06-10T06:47:40;20.40;94.40
11043;DHT22;5574;48.786;10.120;2023-06-10T06:50:07;20.40;94.20
11043;DHT22;5574;48.786;10.120;2023-06-10T06:52:34;20.60;94.70
11043;DHT22;5574;48.786;10.120;2023-06-10T06:55:01;20.60;94.50
11043;DHT22;5574;48.786;10.120;2023-06-10T06:57:27;20.70;94.60
11043;DHT22;5574;48.786;10.120;2023-06-10T06:59:54;20.80;94.30
11043;DHT22;5574;48.786;10.120;2023-06-10T07:02:21;20.90;94.10
11043;DHT22;5574;48.786;10.120;2023-06-10T07:04:49;20.90;93.80
11043;DHT22;5574;48.786;10.120;2023-06-10T07:07:16;20.90;93.80
11043;DHT22;5574;48.786;10.120;2023-06-10T07:09:43;20.90;93.80
11043;DHT22;5574;48.786;10.120;2023-06-10T07:12:10;20.90;94.00
11043;DHT22;5574;48.786;10.120;2023-06-10T07:14:36;21.00;93.70
11043;DHT22;5574;48.786;10.120;2023-06-10T07:17:03;21.00;93.10
11043;DHT22;5574;48.786;10.120;2023-06-10T07:19:30;21.10;93.90
11043;DHT22;5574;48.786;10.120;2023-06-10T07:21:58;21.20;94.00
11043;DHT22;5574;48.786;10.120;2023-06-10T07:24:25;21.30;94.00
11043;DHT22;5574;48.786;10.120;2023-06-10T07:26:51;21.40;94.30
11043;DHT22;5574;48.786;10.120;2023-06-10T07:29:18;21.50;93.30
11043;DHT22;5574;48.786;10.120;2023-06-10T07:31:45;21.60;93.20
11043;DHT22;5574;48.786;10.120;2023-06-10T07:34:11;21.70;93.10
11043;DHT22;5574;48.786;10.120;2023-06-10T07:36:38;21.80;93.50
11043;DHT22;5574;48.786;10.120;2023-06-10T07:39:06;21.80;92.70
11043;DHT22;5574;48.786;10.120;2023-06-10T07:41:33;22.00;93.00
11043;DHT22;5574;48.786;10.120;2023-06-10T07:44:00;22.10;92.10
11043;DHT22;5574;48.786;10.120;2023-06-10T07:46:27;22.10;92.10
11043;DHT22;5574;48.786;10.120;2023-06-10T07:48:54;22.10;91.90
11043;DHT22;5574;48.786;10.120;2023-06-10T07:51:21;22.20;92.20
11043;DHT22;5574;48.786;10.120;2023-06-10T07:53:48;22.20;91.40
11043;DHT22;5574;48.786;10.120;2023-06-10T07:56:16;22.20;91.40
11043;DHT22;5574;48.786;10.120;2023-06-10T07:58:43;22.20;91.10
11043;DHT22;5574;48.786;10.120;2023-06-10T08:01:09;22.40;92.20
11043;DHT22;5574;48.786;10.120;2023-06-10T08:03:36;22.40;91.50
11043;DHT22;5574;48.786;10.120;2023-06-10T08:06:03;22.50;90.90
11043;DHT22;5574;48.786;10.120;2023-06-10T08:08:31;22.60;92.30
11043;DHT22;5574;48.786;10.120;2023-06-10T08:10:57;22.60;91.00
11043;DHT22;5574;48.786;10.120;2023-06-10T08:13:25;22.80;91.30
11043;DHT22;5574;48.786;10.120;2023-06-10T08:15:52;22.90;91.20
11043;DHT22;5574;48.786;10.120;2023-06-10T08:18:21;22.80;90.90
11043;DHT22;5574;48.786;10.120;2023-06-10T08:20:48;22.90;91.00
11043;DHT22;5574;48.786;10.120;2023-06-10T08:23:14;23.00;91.40
11043;DHT22;5574;48.786;10.120;2023-06-10T08:25:41;23.20;90.90
11043;DHT22;5574;48.786;10.120;2023-06-10T08:28:08;23.30;91.00
11043;DHT22;5574;48.786;10.120;2023-06-10T08:30:36;23.20;90.10
11043;DHT22;5574;48.786;10.120;2023-06-10T08:33:02;23.30;90.40
11043;DHT22;5574;48.786;10.120;2023-06-10T08:35:29;23.30;90.20
11043;DHT22;5574;48.786;10.120;2023-06-10T08:37:56;23.30;90.00
11043;DHT22;5574;48.786;10.120;2023-06-10T08:40:23;23.20;89.60
11043;DHT22;5574;48.786;10.120;2023-06-10T08:42:56;23.30;89.70
11043;DHT22;5574;48.786;10.120;2023-06-10T08:45:24;23.40;90.20
11043;DHT22;5574;48.786;10.120;2023-06-10T08:47:53;23.50;89.60
11043;DHT22;5574;48.786;10.120;2023-06-10T08:50:23;23.50;89.10
11043;DHT22;5574;48.786;10.120;2023-06-10T08:52:54;23.60;89.60
11043;DHT22;5574;48.786;10.120;2023-06-10T08:55:26;23.50;88.70
11043;DHT22;5574;48.786;10.120;2023-06-10T08:57:53;23.60;90.10
11043;DHT22;5574;48.786;10.120;2023-06-10T09:00:21;23.60;90.00
11043;DHT22;5574;48.786;10.120;2023-06-10T09:02:48;23.60;89.60
11043;DHT22;5574;48.786;10.120;2023-06-10T09:05:17;23.80;90.00
11043;DHT22;5574;48.786;10.120;2023-06-10T09:07:46;24.00;90.00
11043;DHT22;5574;48.786;10.120;2023-06-10T09:10:14;24.20;89.40
11043;DHT22;5574;48.786;10.120;2023-06-10T09:12:40;24.30;87.90
11043;DHT22;5574;48.786;10.120;2023-06-10T09:15:08;24.50;88.80
11043;DHT22;5574;48.786;10.120;2023-06-10T09:17:37;24.20;87.70
11043;DHT22;5574;48.786;10.120;2023-06-10T09:20:06;24.40;87.60
11043;DHT22;5574;48.786;10.120;2023-06-10T09:22:35;23.90;86.70
11043;DHT22;5574;48.786;10.120;2023-06-10T09:25:02;24.10;89.50
11043;DHT22;5574;48.786;10.120;2023-06-10T09:27:31;24.30;88.60
11043;DHT22;5574;48.786;10.120;2023-06-10T09:29:58;24.30;87.70
11043;DHT22;5574;48.786;10.120;2023-06-10T09:32:25;24.30;88.40
11043;DHT22;5574;48.786;10.120;2023-06-10T09:34:52;24.40;86.60
11043;DHT22;5574;48.786;10.120;2023-06-10T09:37:23;24.70;88.30
11043;DHT22;5574;48.786;10.120;2023-06-10T09:40:05;25.00;88.70
11043;DHT22;5574;48.786;10.120;2023-06-10T09:42:33;24.90;86.40
11043;DHT22;5574;48.786;10.120;2023-06-10T09:45:00;25.10;85.10
11043;DHT22;5574;48.786;10.120;2023-06-10T09:47:27;24.90;83.60
11043;DHT22;5574;48.786;10.120;2023-06-10T09:49:54;25.20;85.90
11043;DHT22;5574;48.786;10.120;2023-06-10T09:52:22;25.20;83.90
11043;DHT22;5574;48.786;10.120;2023-06-10T09:54:49;25.20;82.50
11043;DHT22;5574;48.786;10.120;2023-06-10T09:57:19;25.40;83.10
11043;DHT22;5574;48.786;10.120;2023-06-10T09:59:46;25.50;84.50
11043;DHT22;5574;48.786;10.120;2023-06-10T10:02:14;25.50;82.70
11043;DHT22;5574;48.786;10.120;2023-06-10T10:04:41;25.60;84.10
11043;DHT22;5574;48.786;10.120;2023-06-10T10:07:08;25.70;82.90
11043;DHT22;5574;48.786;10.120;2023-06-10T10:09:36;25.50;80.80
11043;DHT22;5574;48.786;10.120;2023-06-10T10:12:04;25.50;82.70
11043;DHT22;5574;48.786;10.120;2023-06-10T10:14:36;25.60;81.90
11043;DHT22;5574;48.786;10.120;2023-06-10T10:17:05;25.50;83.40
11043;DHT22;5574;48.786;10.120;2023-06-10T10:19:38;25.60;83.20
11043;DHT22;5574;48.786;10.120;2023-06-10T10:22:08;25.10;82.40
11043;DHT22;5574;48.786;10.120;2023-06-10T10:24:38;24.80;84.80
11043;DHT22;5574;48.786;10.120;2023-06-10T10:27:11;24.40;84.90
11043;DHT22;5574;48.786;10.120;2023-06-10T10:29:45;24.40;85.60
11043;DHT22;5574;48.786;10.120;2023-06-10T10:32:14;24.70;85.80
11043;DHT22;5574;48.786;10.120;2023-06-10T10:34:53;24.90;84.90
11043;DHT22;5574;48.786;10.120;2023-06-10T10:37:22;25.10;85.10
11043;DHT22;5574;48.786;10.120;2023-06-10T10:39:49;24.90;84.40
11043;DHT22;5574;48.786;10.120;2023-06-10T10:42:17;24.50;83.30
11043;DHT22;5574;48.786;10.120;2023-06-10T10:44:46;24.30;85.90
11043;DHT22;5574;48.786;10.120;2023-06-10T10:47:14;24.10;85.50
11043;DHT22;5574;48.786;10.120;2023-06-10T10:49:43;24.10;84.90
11043;DHT22;5574;48.786;10.120;2023-06-10T10:52:12;24.00;85.50
11043;DHT22;5574;48.786;10.120;2023-06-10T10:54:43;24.30;85.00
11043;DHT22;5574;48.786;10.120;2023-06-10T10:57:14;24.70;82.50
11043;DHT22;5574;48.786;10.120;2023-06-10T10:59:51;24.80;84.00
11043;DHT22;5574;48.786;10.120;2023-06-10T11:02:34;24.70;82.10
11043;DHT22;5574;48.786;10.120;2023-06-10T11:05:01;24.60;82.20
11043;DHT22;5574;48.786;10.120;2023-06-10T11:07:30;24.60;83.70
11043;DHT22;5574;48.786;10.120;2023-06-10T11:10:01;25.10;85.10
11043;DHT22;5574;48.786;10.120;2023-06-10T11:12:41;25.20;84.00
11043;DHT22;5574;48.786;10.120;2023-06-10T11:15:09;25.00;82.10
11043;DHT22;5574;48.786;10.120;2023-06-10T11:17:36;24.70;82.30
11043;DHT22;5574;48.786;10.120;2023-06-10T11:20:03;24.50;82.40
11043;DHT22;5574;48.786;10.120;2023-06-10T11:22:30;24.30;84.60
11043;DHT22;5574;48.786;10.120;2023-06-10T11:24:57;24.20;85.80
11043;DHT22;5574;48.786;10.120;2023-06-10T11:27:24;24.60;84.90
11043;DHT22;5574;48.786;10.120;2023-06-10T11:29:58;25.20;84.20
11043;DHT22;5574;48.786;10.120;2023-06-10T11:32:30;25.00;81.50
11043;DHT22;5574;48.786;10.120;2023-06-10T11:34:57;24.80;83.80
11043;DHT22;5574;48.786;10.120;2023-06-10T11:37:24;24.60;84.10
11043;DHT22;5574;48.786;10.120;2023-06-10T11:39:52;24.70;83.90
11043;DHT22;5574;48.786;10.120;2023-06-10T11:42:19;24.80;83.80
11043;DHT22;5574;48.786;10.120;2023-06-10T11:44:48;24.90;82.20
11043;DHT22;5574;48.786;10.120;2023-06-10T11:47:15;25.00;83.60
11043;DHT22;5574;48.786;10.120;2023-06-10T11:49:44;25.40;82.70
11043;DHT22;5574;48.786;10.120;2023-06-10T11:52:11;25.50;81.10
11043;DHT22;5574;48.786;10.120;2023-06-10T11:54:38;25.80;81.10
11043;DHT22;5574;48.786;10.120;2023-06-10T11:57:05;26.00;79.60
11043;DHT22;5574;48.786;10.120;2023-06-10T11:59:34;26.00;79.70
11043;DHT22;5574;48.786;10.120;2023-06-10T12:02:01;25.50;81.40
11043;DHT22;5574;48.786;10.120;2023-06-10T12:04:28;25.50;81.80
11043;DHT22;5574;48.786;10.120;2023-06-10T12:06:56;25.40;81.80
11043;DHT22;5574;48.786;10.120;2023-06-10T12:09:24;25.40;81.50
11043;DHT22;5574;48.786;10.120;2023-06-10T12:11:53;25.20;81.90
11043;DHT22;5574;48.786;10.120;2023-06-10T12:14:52;25.20;83.10
11043;DHT22;5574;48.786;10.120;2023-06-10T12:17:23;25.10;82.00
11043;DHT22;5574;48.786;10.120;2023-06-10T12:19:50;24.60;83.10
11043;DHT22;5574;48.786;10.120;2023-06-10T12:22:18;24.40;83.70
11043;DHT22;5574;48.786;10.120;2023-06-10T12:24:57;24.20;86.10
11043;DHT22;5574;48.786;10.120;2023-06-10T12:27:25;24.10;85.00
11043;DHT22;5574;48.786;10.120;2023-06-10T12:29:54;23.90;85.70
11043;DHT22;5574;48.786;10.120;2023-06-10T12:32:21;23.80;86.30
11043;DHT22;5574;48.786;10.120;2023-06-10T12:35:02;23.80;87.20
11043;DHT22;5574;48.786;10.120;2023-06-10T12:37:31;23.80;86.80
11043;DHT22;5574;48.786;10.120;2023-06-10T12:40:00;23.90;87.20
11043;DHT22;5574;48.786;10.120;2023-06-10T12:42:28;23.80;86.60
11043;DHT22;5574;48.786;10.120;2023-06-10T12:44:56;24.30;85.20
11043;DHT22;5574;48.786;10.120;2023-06-10T12:47:29;24.50;85.40
11043;DHT22;5574;48.786;10.120;2023-06-10T12:49:58;24.70;82.70
11043;DHT22;5574;48.786;10.120;2023-06-10T12:52:25;24.80;82.80
11043;DHT22;5574;48.786;10.120;2023-06-10T12:54:53;25.20;83.50
11043;DHT22;5574;48.786;10.120;2023-06-10T12:57:20;25.40;82.30
11043;DHT22;5574;48.786;10.120;2023-06-10T12:59:47;25.30;82.60
11043;DHT22;5574;48.786;10.120;2023-06-10T13:02:18;25.10;82.40
11043;DHT22;5574;48.786;10.120;2023-06-10T13:04:45;25.30;80.60
11043;DHT22;5574;48.786;10.120;2023-06-10T13:07:12;25.80;81.00
11043;DHT22;5574;48.786;10.120;2023-06-10T13:09:38;25.80;78.20
11043;DHT22;5574;48.786;10.120;2023-06-10T13:12:08;25.90;77.70
11043;DHT22;5574;48.786;10.120;2023-06-10T13:14:35;25.80;76.60
11043;DHT22;5574;48.786;10.120;2023-06-10T13:17:03;25.90;77.50
11043;DHT22;5574;48.786;10.120;2023-06-10T13:19:31;26.20;80.80
11043;DHT22;5574;48.786;10.120;2023-06-10T13:21:58;26.20;78.30
11043;DHT22;5574;48.786;10.120;2023-06-10T13:24:24;26.40;76.20
11043;DHT22;5574;48.786;10.120;2023-06-10T13:26:51;26.40;75.80
11043;DHT22;5574;48.786;10.120;2023-06-10T13:29:19;26.40;76.80
11043;DHT22;5574;48.786;10.120;2023-06-10T13:31:46;26.20;77.90
11043;DHT22;5574;48.786;10.120;2023-06-10T13:34:13;25.80;77.30
11043;DHT22;5574;48.786;10.120;2023-06-10T13:36:40;25.80;77.80
11043;DHT22;5574;48.786;10.120;2023-06-10T13:39:06;25.80;78.50
11043;DHT22;5574;48.786;10.120;2023-06-10T13:41:33;25.80;77.40
11043;DHT22;5574;48.786;10.120;2023-06-10T13:44:00;25.90;74.20
11043;DHT22;5574;48.786;10.120;2023-06-10T13:46:28;26.10;74.10
11043;DHT22;5574;48.786;10.120;2023-06-10T13:48:54;26.00;74.90
11043;DHT22;5574;48.786;10.120;2023-06-10T13:51:21;26.00;75.70
11043;DHT22;5574;48.786;10.120;2023-06-10T13:53:48;26.10;76.00
11043;DHT22;5574;48.786;10.120;2023-06-10T13:56:17;26.20;75.50
11043;DHT22;5574;48.786;10.120;2023-06-10T13:58:44;26.30;76.00
11043;DHT22;5574;48.786;10.120;2023-06-10T14:01:10;26.30;77.20
11043;DHT22;5574;48.786;10.120;2023-06-10T14:03:38;26.20;77.00
11043;DHT22;5574;48.786;10.120;2023-06-10T14:06:05;26.20;75.00
11043;DHT22;5574;48.786;10.120;2023-06-10T14:08:32;26.10;76.10
11043;DHT22;5574;48.786;10.120;2023-06-10T14:10:59;25.80;77.20
11043;DHT22;5574;48.786;10.120;2023-06-10T14:13:26;25.80;76.90
11043;DHT22;5574;48.786;10.120;2023-06-10T14:15:53;25.70;75.80
11043;DHT22;5574;48.786;10.120;2023-06-10T14:18:20;25.80;75.80
11043;DHT22;5574;48.786;10.120;2023-06-10T14:20:48;25.80;75.80
11043;DHT22;5574;48.786;10.120;2023-06-10T14:23:15;25.80;76.80
11043;DHT22;5574;48.786;10.120;2023-06-10T14:25:41;25.90;77.40
11043;DHT22;5574;48.786;10.120;2023-06-10T14:28:08;26.10;78.70
11043;DHT22;5574;48.786;10.120;2023-06-10T14:30:35;26.20;77.90
11043;DHT22;5574;48.786;10.120;2023-06-10T14:33:01;26.20;77.70
11043;DHT22;5574;48.786;10.120;2023-06-10T14:35:28;25.80;77.70
11043;DHT22;5574;48.786;10.120;2023-06-10T14:37:56;25.70;79.40
11043;DHT22;5574;48.786;10.120;2023-06-10T14:40:23;25.50;78.40
11043;DHT22;5574;48.786;10.120;2023-06-10T14:42:51;25.60;78.10
11043;DHT22;5574;48.786;10.120;2023-06-10T14:45:18;25.60;76.60
11043;DHT22;5574;48.786;10.120;2023-06-10T14:47:45;25.70;77.70
11043;DHT22;5574;48.786;10.120;2023-06-10T14:50:12;25.80;77.20
11043;DHT22;5574;48.786;10.120;2023-06-10T14:52:39;25.70;77.90
11043;DHT22;5574;48.786;10.120;2023-06-10T14:55:08;25.90;79.50
11043;DHT22;5574;48.786;10.120;2023-06-10T14:57:34;26.10;77.60
11043;DHT22;5574;48.786;10.120;2023-06-10T15:00:01;26.20;77.50
11043;DHT22;5574;48.786;10.120;2023-06-10T15:02:28;26.00;77.40
11043;DHT22;5574;48.786;10.120;2023-06-10T15:04:54;26.00;77.90
11043;DHT22;5574;48.786;10.120;2023-06-10T15:07:21;25.70;77.50
11043;DHT22;5574;48.786;10.120;2023-06-10T15:09:48;25.40;77.40
11043;DHT22;5574;48.786;10.120;2023-06-10T15:12:16;25.30;78.80
11043;DHT22;5574;48.786;10.120;2023-06-10T15:14:42;25.40;78.60
11043;DHT22;5574;48.786;10.120;2023-06-10T15:17:09;25.50;77.40
11043;DHT22;5574;48.786;10.120;2023-06-10T15:19:36;25.70;78.30
11043;DHT22;5574;48.786;10.120;2023-06-10T15:22:03;25.80;77.40
11043;DHT22;5574;48.786;10.120;2023-06-10T15:24:30;25.90;78.30
11043;DHT22;5574;48.786;10.120;2023-06-10T15:26:56;25.80;76.60
11043;DHT22;5574;48.786;10.120;2023-06-10T15:29:24;25.70;78.10
11043;DHT22;5574;48.786;10.120;2023-06-10T15:31:51;25.80;78.50
11043;DHT22;5574;48.786;10.120;2023-06-10T15:34:17;25.70;79.90